Time,TemperatureF,DewpointF,PressureIn,WindDirection,WindDirectionDegrees,WindSpeedMPH,WindSpeedGustMPH,Humidity,HourlyPrecipIn,Conditions,Clouds,dailyrainin,SoftwareType,DateUTC
2013-04-25 00:03:00,48.7,44.2,30.16,West,270,0.0,1.3,84,0.00,,,0.00,WUHU21623XXSP,2013-04-25 04:03:00,
2013-04-25 00:08:00,48.7,44.1,30.16,West,270,0.0,0.0,84,0.00,,,0.00,WUHU21623XXSP,2013-04-25 04:08:00,
2013-04-25 00:13:00,48.7,44.1,30.17,WSW,247,0.0,0.0,84,0.00,,,0.00,WUHU21623XXSP,2013-04-25 04:13:00,
2013-04-25 00:18:00,48.6,43.9,30.16,WSW,247,1.8,3.4,84,0.00,,,0.00,WUHU21623XXSP,2013-04-25 04:18:00,
2013-04-25 00:23:00,48.2,43.6,30.17,WSW,247,0.0,3.4,84,0.00,,,0.00,WUHU21623XXSP,2013-04-25 04:23:00,
2013-04-25 00:28:00,48.0,43.4,30.17,WSW,247,0.0,0.0,84,0.00,,,0.00,WUHU21623XXSP,2013-04-25 04:28:00,
2013-04-25 00:33:00,48.0,43.4,30.17,WSW,247,0.0,1.8,84,0.00,,,0.00,WUHU21623XXSP,2013-04-25 04:33:00,
2013-04-25 00:38:00,47.8,43.2,30.17,WSW,247,0.0,2.0,84,0.00,,,0.00,WUHU21623XXSP,2013-04-25 04:38:00,
2013-04-25 00:43:00,47.7,43.0,30.17,WSW,247,0.0,2.0,84,0.00,,,0.00,WUHU21623XXSP,2013-04-25 04:43:00,
2013-04-25 00:48:00,47.5,42.9,30.17,WSW,247,0.0,0.0,84,0.00,,,0.00,WUHU21623XXSP,2013-04-25 04:48:00,
2013-04-25 00:53:00,47.3,42.7,30.17,WSW,247,0.0,0.0,84,0.00,,,0.00,WUHU21623XXSP,2013-04-25 04:53:00,
2013-04-25 00:58:00,47.1,42.2,30.17,WSW,247,0.0,4.9,83,0.00,,,0.00,WUHU21623XXSP,2013-04-25 04:58:00,
2013-04-25 01:03:00,47.1,42.2,30.17,WSW,247,0.0,4.9,83,0.00,,,0.00,WUHU21623XXSP,2013-04-25 05:03:00,
2013-04-25 01:15:00,46.8,41.9,30.17,WSW,247,0.0,0.0,83,0.00,,,0.00,WUHU21623XXSP,2013-04-25 05:15:00,
2013-04-25 01:20:00,46.6,41.7,30.17,WSW,247,0.0,0.0,83,0.00,,,0.00,WUHU21623XXSP,2013-04-25 05:20:00,
2013-04-25 01:25:00,46.6,41.7,30.17,WSW,247,0.0,0.0,83,0.00,,,0.00,WUHU21623XXSP,2013-04-25 05:25:00,
2013-04-25 01:30:00,46.2,41.4,30.17,WSW,247,0.0,1.6,83,0.00,,,0.00,WUHU21623XXSP,2013-04-25 05:30:00,
2013-04-25 01:35:00,46.2,41.4,30.17,WSW,247,1.1,1.6,83,0.00,,,0.00,WUHU21623XXSP,2013-04-25 05:35:00,
2013-04-25 01:40:00,46.0,41.2,30.17,WSW,247,0.0,1.1,83,0.00,,,0.00,WUHU21623XXSP,2013-04-25 05:40:00,
2013-04-25 01:45:00,45.9,41.0,30.17,WSW,247,0.0,0.0,83,0.00,,,0.00,WUHU21623XXSP,2013-04-25 05:45:00,
2013-04-25 01:50:00,45.7,40.8,30.17,WSW,247,2.2,2.2,83,0.00,,,0.00,WUHU21623XXSP,2013-04-25 05:50:00,
2013-04-25 01:55:00,45.7,40.8,30.17,WSW,247,0.0,2.2,83,0.00,,,0.00,WUHU21623XXSP,2013-04-25 05:55:00,
2013-04-25 02:00:00,45.5,40.7,30.17,WSW,247,0.0,0.0,83,0.00,,,0.00,WUHU21623XXSP,2013-04-25 06:00:00,
2013-04-25 02:15:00,45.3,40.2,30.18,WSW,247,0.0,0.0,82,0.00,,,0.00,WUHU21623XXSP,2013-04-25 06:15:00,
2013-04-25 02:20:00,45.3,40.2,30.17,WSW,247,0.0,0.0,82,0.00,,,0.00,WUHU21623XXSP,2013-04-25 06:20:00,
2013-04-25 02:25:00,45.3,40.5,30.17,WSW,247,0.0,0.0,83,0.00,,,0.00,WUHU21623XXSP,2013-04-25 06:25:00,
2013-04-25 02:30:00,45.3,40.5,30.17,WSW,247,0.0,0.0,83,0.00,,,0.00,WUHU21623XXSP,2013-04-25 06:30:00,
2013-04-25 02:35:00,45.3,40.5,30.17,WSW,247,0.0,0.0,83,0.00,,,0.00,WUHU21623XXSP,2013-04-25 06:35:00,
2013-04-25 02:40:00,45.3,40.5,30.17,WSW,247,0.0,0.0,83,0.00,,,0.00,WUHU21623XXSP,2013-04-25 06:40:00,
2013-04-25 02:45:00,45.3,40.5,30.17,WSW,247,0.0,0.0,83,0.00,,,0.00,WUHU21623XXSP,2013-04-25 06:45:00,
2013-04-25 02:50:00,45.3,40.5,30.17,WSW,247,0.0,0.0,83,0.00,,,0.00,WUHU21623XXSP,2013-04-25 06:50:00,
2013-04-25 02:55:00,45.3,40.5,30.17,WSW,247,0.0,0.0,83,0.00,,,0.00,WUHU21623XXSP,2013-04-25 06:55:00,
2013-04-25 03:00:00,45.1,40.3,30.16,WSW,247,0.0,0.0,83,0.00,,,0.00,WUHU21623XXSP,2013-04-25 07:00:00,
2013-04-25 03:15:00,45.3,40.5,30.17,WSW,247,0.0,0.0,83,0.00,,,0.00,WUHU21623XXSP,2013-04-25 07:15:00,
2013-04-25 03:20:00,45.1,40.3,30.17,WSW,247,0.0,0.0,83,0.00,,,0.00,WUHU21623XXSP,2013-04-25 07:20:00,
2013-04-25 03:25:00,45.1,40.6,30.17,WSW,247,0.0,0.0,84,0.00,,,0.00,WUHU21623XXSP,2013-04-25 07:25:00,
2013-04-25 03:30:00,45.1,40.6,30.17,WSW,247,0.0,0.0,84,0.00,,,0.00,WUHU21623XXSP,2013-04-25 07:30:00,
2013-04-25 03:35:00,45.1,40.6,30.17,WSW,247,0.0,0.0,84,0.00,,,0.00,WUHU21623XXSP,2013-04-25 07:35:00,
2013-04-25 03:40:00,45.1,40.3,30.17,WSW,247,0.0,0.0,83,0.00,,,0.00,WUHU21623XXSP,2013-04-25 07:40:00,
2013-04-25 03:45:00,45.1,40.3,30.17,WSW,247,0.0,0.0,83,0.00,,,0.00,WUHU21623XXSP,2013-04-25 07:45:00,
2013-04-25 03:50:00,45.1,40.3,30.17,WSW,247,0.0,0.0,83,0.00,,,0.00,WUHU21623XXSP,2013-04-25 07:50:00,
2013-04-25 03:55:00,45.0,40.1,30.17,WSW,247,0.0,0.0,83,0.00,,,0.00,WUHU21623XXSP,2013-04-25 07:55:00,
2013-04-25 04:00:00,45.0,40.1,30.17,WSW,247,0.0,0.0,83,0.00,,,0.00,WUHU21623XXSP,2013-04-25 08:00:00,
2013-04-25 04:05:00,45.0,40.1,30.17,WSW,247,0.0,0.0,83,0.00,,,0.00,WUHU21623XXSP,2013-04-25 08:05:00,
2013-04-25 04:10:00,45.0,40.1,30.17,WSW,247,0.0,0.0,83,0.00,,,0.00,WUHU21623XXSP,2013-04-25 08:10:00,
2013-04-25 04:15:00,45.1,40.3,30.18,WSW,247,0.0,0.0,83,0.00,,,0.00,WUHU21623XXSP,2013-04-25 08:15:00,
2013-04-25 04:20:00,45.1,40.3,30.17,WSW,247,0.0,0.0,83,0.00,,,0.00,WUHU21623XXSP,2013-04-25 08:20:00,
2013-04-25 04:25:00,45.1,40.3,30.18,WSW,247,0.0,0.0,83,0.00,,,0.00,WUHU21623XXSP,2013-04-25 08:25:00,
2013-04-25 04:30:00,45.1,40.3,30.18,WSW,247,0.0,0.0,83,0.00,,,0.00,WUHU21623XXSP,2013-04-25 08:30:00,
2013-04-25 04:35:00,45.1,40.3,30.17,WSW,247,0.0,0.0,83,0.00,,,0.00,WUHU21623XXSP,2013-04-25 08:35:00,
2013-04-25 04:40:00,45.1,40.3,30.17,WSW,247,0.0,0.0,83,0.00,,,0.00,WUHU21623XXSP,2013-04-25 08:40:00,
2013-04-25 04:45:00,45.1,40.3,30.17,WSW,247,0.0,0.0,83,0.00,,,0.00,WUHU21623XXSP,2013-04-25 08:45:00,
2013-04-25 04:50:00,45.0,40.1,30.18,WSW,247,0.0,0.0,83,0.00,,,0.00,WUHU21623XXSP,2013-04-25 08:50:00,
2013-04-25 04:55:00,44.8,39.6,30.18,WSW,247,0.0,0.0,82,0.00,,,0.00,WUHU21623XXSP,2013-04-25 08:55:00,
2013-04-25 05:00:00,44.4,39.5,30.18,WSW,247,0.0,0.0,82,0.00,,,0.00,WUHU21623XXSP,2013-04-25 09:00:00,
2013-04-25 05:05:00,44.4,39.3,30.18,WSW,247,0.0,0.0,82,0.00,,,0.00,WUHU21623XXSP,2013-04-25 09:05:00,
2013-04-25 05:10:00,44.1,38.9,30.18,WSW,247,0.0,0.0,82,0.00,,,0.00,WUHU21623XXSP,2013-04-25 09:10:00,
2013-04-25 05:15:00,43.9,38.7,30.18,WSW,247,0.0,0.0,82,0.00,,,0.00,WUHU21623XXSP,2013-04-25 09:15:00,
2013-04-25 05:20:00,43.5,38.4,30.18,WSW,247,0.0,0.0,82,0.00,,,0.00,WUHU21623XXSP,2013-04-25 09:20:00,
2013-04-25 05:25:00,43.2,38.3,30.19,WSW,247,0.0,0.0,83,0.00,,,0.00,WUHU21623XXSP,2013-04-25 09:25:00,
2013-04-25 05:30:00,43.0,38.1,30.18,WSW,247,0.0,0.0,83,0.00,,,0.00,WUHU21623XXSP,2013-04-25 09:30:00,
2013-04-25 05:35:00,42.6,38.1,30.18,WSW,247,0.0,0.0,83,0.00,,,0.00,WUHU21623XXSP,2013-04-25 09:35:00,
2013-04-25 05:40:00,42.4,37.6,30.18,WSW,247,0.0,0.0,83,0.00,,,0.00,WUHU21623XXSP,2013-04-25 09:40:00,
2013-04-25 05:45:00,42.3,37.4,30.18,WSW,247,0.0,0.0,83,0.00,,,0.00,WUHU21623XXSP,2013-04-25 09:45:00,
2013-04-25 05:50:00,41.9,37.2,30.18,WSW,247,0.0,0.0,83,0.00,,,0.00,WUHU21623XXSP,2013-04-25 09:50:00,
2013-04-25 05:55:00,41.5,36.7,30.18,WSW,247,0.0,0.0,83,0.00,,,0.00,WUHU21623XXSP,2013-04-25 09:55:00,
2013-04-25 06:00:00,41.4,36.5,30.18,WSW,247,0.0,0.0,83,0.00,,,0.00,WUHU21623XXSP,2013-04-25 10:00:00,
2013-04-25 06:05:00,41.2,36.3,30.19,WSW,247,0.0,0.0,83,0.00,,,0.00,WUHU21623XXSP,2013-04-25 10:05:00,
2013-04-25 06:10:00,41.2,36.3,30.19,WSW,247,0.0,0.0,83,0.00,,,0.00,WUHU21623XXSP,2013-04-25 10:10:00,
2013-04-25 06:15:00,41.0,36.2,30.19,WSW,247,0.0,0.0,83,0.00,,,0.00,WUHU21623XXSP,2013-04-25 10:15:00,
2013-04-25 06:20:00,41.0,36.5,30.19,WSW,247,0.0,0.0,84,0.00,,,0.00,WUHU21623XXSP,2013-04-25 10:20:00,
2013-04-25 06:25:00,41.0,36.5,30.19,WSW,247,0.0,0.0,84,0.00,,,0.00,WUHU21623XXSP,2013-04-25 10:25:00,
2013-04-25 06:30:00,41.0,36.5,30.19,WSW,247,0.0,0.0,84,0.00,,,0.00,WUHU21623XXSP,2013-04-25 10:30:00,
2013-04-25 06:35:00,41.0,36.3,30.20,WSW,247,0.0,0.0,84,0.00,,,0.00,WUHU21623XXSP,2013-04-25 10:35:00,
2013-04-25 06:40:00,40.8,36.3,30.20,WSW,247,0.0,0.0,84,0.00,,,0.00,WUHU21623XXSP,2013-04-25 10:40:00,
2013-04-25 06:45:00,40.8,36.3,30.20,WSW,247,0.0,0.0,84,0.00,,,0.00,WUHU21623XXSP,2013-04-25 10:45:00,
2013-04-25 06:50:00,40.6,36.1,30.20,WSW,247,0.0,0.0,84,0.00,,,0.00,WUHU21623XXSP,2013-04-25 10:50:00,
2013-04-25 06:55:00,40.3,35.9,30.20,WSW,247,0.0,0.0,84,0.00,,,0.00,WUHU21623XXSP,2013-04-25 10:55:00,
2013-04-25 07:00:00,40.1,35.6,30.20,WSW,247,0.0,0.0,84,0.00,,,0.00,WUHU21623XXSP,2013-04-25 11:00:00,
2013-04-25 07:06:00,39.7,35.4,30.20,WSW,247,0.0,0.0,84,0.00,,,0.00,WUHU21623XXSP,2013-04-25 11:06:00,
2013-04-25 07:11:00,39.7,35.3,30.21,WSW,247,0.0,0.0,84,0.00,,,0.00,WUHU21623XXSP,2013-04-25 11:11:00,
2013-04-25 07:16:00,39.7,35.3,30.21,WSW,247,0.0,0.0,84,0.00,,,0.00,WUHU21623XXSP,2013-04-25 11:16:00,
2013-04-25 07:21:00,39.6,35.1,30.21,WSW,247,0.0,0.0,84,0.00,,,0.00,WUHU21623XXSP,2013-04-25 11:21:00,
2013-04-25 07:26:00,39.6,35.1,30.21,WSW,247,0.0,0.0,84,0.00,,,0.00,WUHU21623XXSP,2013-04-25 11:26:00,
2013-04-25 07:31:00,39.9,35.7,30.21,WSW,247,0.0,0.0,85,0.00,,,0.00,WUHU21623XXSP,2013-04-25 11:31:00,
2013-04-25 07:36:00,40.1,35.9,30.21,WSW,247,0.0,0.0,85,0.00,,,0.00,WUHU21623XXSP,2013-04-25 11:36:00,
2013-04-25 07:41:00,40.3,36.1,30.22,WSW,247,0.0,0.0,85,0.00,,,0.00,WUHU21623XXSP,2013-04-25 11:41:00,
2013-04-25 07:46:00,40.8,36.6,30.22,WSW,247,0.0,0.0,85,0.00,,,0.00,WUHU21623XXSP,2013-04-25 11:46:00,
2013-04-25 07:51:00,41.4,37.1,30.22,WSW,247,0.0,0.0,85,0.00,,,0.00,WUHU21623XXSP,2013-04-25 11:51:00,
2013-04-25 07:56:00,41.7,37.3,30.22,WSW,247,0.0,0.0,85,0.00,,,0.00,WUHU21623XXSP,2013-04-25 11:56:00,
2013-04-25 08:01:00,42.1,38.2,30.22,WSW,247,0.0,0.0,86,0.00,,,0.00,WUHU21623XXSP,2013-04-25 12:01:00,
2013-04-25 08:06:00,42.6,38.4,30.22,WSW,247,0.0,0.0,85,0.00,,,0.00,WUHU21623XXSP,2013-04-25 12:06:00,
2013-04-25 08:11:00,42.6,38.4,30.22,WSW,247,0.0,0.0,85,0.00,,,0.00,WUHU21623XXSP,2013-04-25 12:11:00,
2013-04-25 08:16:00,43.0,38.8,30.22,WSW,247,0.0,0.0,85,0.00,,,0.00,WUHU21623XXSP,2013-04-25 12:16:00,
2013-04-25 08:21:00,43.3,39.1,30.22,WSW,247,0.0,0.0,85,0.00,,,0.00,WUHU21623XXSP,2013-04-25 12:21:00,
2013-04-25 08:26:00,43.3,39.1,30.22,WSW,247,0.0,0.0,85,0.00,,,0.00,WUHU21623XXSP,2013-04-25 12:26:00,
2013-04-25 08:31:00,43.7,39.3,30.23,WSW,247,0.0,0.0,85,0.00,,,0.00,WUHU21623XXSP,2013-04-25 12:31:00,
2013-04-25 08:36:00,43.9,39.3,30.23,WSW,247,0.0,0.0,84,0.00,,,0.00,WUHU21623XXSP,2013-04-25 12:36:00,
2013-04-25 08:41:00,43.9,39.3,30.23,WSW,247,0.0,0.0,84,0.00,,,0.00,WUHU21623XXSP,2013-04-25 12:41:00,
2013-04-25 08:46:00,44.1,39.2,30.23,WSW,247,0.0,0.0,83,0.00,,,0.00,WUHU21623XXSP,2013-04-25 12:46:00,
2013-04-25 08:51:00,44.8,40.2,30.23,WSW,247,0.0,0.0,84,0.00,,,0.00,WUHU21623XXSP,2013-04-25 12:51:00,
2013-04-25 08:56:00,45.1,40.3,30.23,WSW,247,0.0,0.0,83,0.00,,,0.00,WUHU21623XXSP,2013-04-25 12:56:00,
2013-04-25 09:01:00,45.7,40.8,30.23,WSW,247,0.0,0.0,83,0.00,,,0.00,WUHU21623XXSP,2013-04-25 13:01:00,
2013-04-25 09:06:00,46.0,41.2,30.23,WSW,247,0.0,0.0,83,0.00,,,0.00,WUHU21623XXSP,2013-04-25 13:06:00,
2013-04-25 09:11:00,46.2,41.1,30.23,WSW,247,0.0,0.0,82,0.00,,,0.00,WUHU21623XXSP,2013-04-25 13:11:00,
2013-04-25 09:16:00,46.8,41.6,30.23,WSW,247,0.0,0.0,82,0.00,,,0.00,WUHU21623XXSP,2013-04-25 13:16:00,
2013-04-25 09:21:00,47.1,41.7,30.24,WSW,247,0.0,0.0,81,0.00,,,0.00,WUHU21623XXSP,2013-04-25 13:21:00,
2013-04-25 09:26:00,47.5,41.9,30.24,WSW,247,0.0,0.0,81,0.00,,,0.00,WUHU21623XXSP,2013-04-25 13:26:00,
2013-04-25 09:31:00,47.8,42.2,30.24,WSW,247,0.0,0.0,81,0.00,,,0.00,WUHU21623XXSP,2013-04-25 13:31:00,
2013-04-25 09:36:00,48.0,42.1,30.25,WSW,247,0.0,0.0,80,0.00,,,0.00,WUHU21623XXSP,2013-04-25 13:36:00,
2013-04-25 09:41:00,48.4,42.1,30.25,WSW,247,0.0,0.0,79,0.00,,,0.00,WUHU21623XXSP,2013-04-25 13:41:00,
2013-04-25 09:46:00,48.4,41.8,30.25,WSW,247,0.0,0.0,78,0.00,,,0.00,WUHU21623XXSP,2013-04-25 13:46:00,
2013-04-25 09:51:00,48.7,41.8,30.25,WSW,247,0.0,0.0,78,0.00,,,0.00,WUHU21623XXSP,2013-04-25 13:51:00,
2013-04-25 09:56:00,49.1,42.0,30.25,WSW,247,0.0,0.0,77,0.00,,,0.00,WUHU21623XXSP,2013-04-25 13:56:00,
2013-04-25 10:01:00,49.6,42.7,30.25,WSW,247,0.0,0.0,77,0.00,,,0.00,WUHU21623XXSP,2013-04-25 14:01:00,
2013-04-25 10:06:00,50.2,42.9,30.26,WSW,247,0.0,0.0,77,0.00,,,0.00,WUHU21623XXSP,2013-04-25 14:06:00,
2013-04-25 10:11:00,50.7,43.4,30.26,WSW,247,0.0,0.0,76,0.00,,,0.00,WUHU21623XXSP,2013-04-25 14:11:00,
2013-04-25 10:16:00,51.6,44.0,30.26,WSW,247,0.0,0.0,75,0.00,,,0.00,WUHU21623XXSP,2013-04-25 14:16:00,
2013-04-25 10:21:00,52.3,44.0,30.26,WNW,292,0.0,0.0,73,0.00,,,0.00,WUHU21623XXSP,2013-04-25 14:21:00,
2013-04-25 10:26:00,52.7,44.3,30.26,NNW,337,0.0,0.0,73,0.00,,,0.00,WUHU21623XXSP,2013-04-25 14:26:00,
2013-04-25 10:31:00,53.8,44.9,30.27,West,270,0.0,0.0,72,0.00,,,0.00,WUHU21623XXSP,2013-04-25 14:31:00,
2013-04-25 10:36:00,54.5,45.0,30.27,NNW,337,1.1,1.1,70,0.00,,,0.00,WUHU21623XXSP,2013-04-25 14:36:00,
2013-04-25 10:41:00,54.7,44.7,30.27,West,270,0.0,1.1,69,0.00,,,0.00,WUHU21623XXSP,2013-04-25 14:41:00,
2013-04-25 10:47:00,55.2,44.9,30.27,North,0,0.0,1.1,68,0.00,,,0.00,WUHU21623XXSP,2013-04-25 14:47:00,
2013-04-25 10:52:00,55.9,44.7,30.28,WNW,292,0.0,1.1,66,0.00,,,0.00,WUHU21623XXSP,2013-04-25 14:52:00,
2013-04-25 10:57:00,56.3,44.2,30.28,WNW,292,0.0,0.0,64,0.00,,,0.00,WUHU21623XXSP,2013-04-25 14:57:00,
2013-04-25 11:02:00,57.0,45.3,30.28,West,270,0.0,0.0,65,0.00,,,0.00,WUHU21623XXSP,2013-04-25 15:02:00,
2013-04-25 11:07:00,57.9,45.8,30.28,NNW,337,0.0,0.0,64,0.00,,,0.00,WUHU21623XXSP,2013-04-25 15:07:00,
2013-04-25 11:12:00,58.8,46.2,30.28,West,270,0.0,0.0,62,0.00,,,0.00,WUHU21623XXSP,2013-04-25 15:12:00,
2013-04-25 11:17:00,59.7,46.5,30.28,West,270,0.0,0.0,60,0.00,,,0.00,WUHU21623XXSP,2013-04-25 15:17:00,
2013-04-25 11:22:00,60.1,46.2,30.28,West,270,0.0,0.0,60,0.00,,,0.00,WUHU21623XXSP,2013-04-25 15:22:00,
2013-04-25 11:27:00,60.6,45.3,30.28,West,270,0.0,1.1,57,0.00,,,0.00,WUHU21623XXSP,2013-04-25 15:27:00,
2013-04-25 11:32:00,61.2,46.3,30.28,West,270,0.0,1.1,58,0.00,,,0.00,WUHU21623XXSP,2013-04-25 15:32:00,
2013-04-25 11:37:00,61.5,46.6,30.28,WNW,292,0.0,0.0,58,0.00,,,0.00,WUHU21623XXSP,2013-04-25 15:37:00,
2013-04-25 11:42:00,62.4,46.5,30.28,West,270,0.0,0.0,56,0.00,,,0.00,WUHU21623XXSP,2013-04-25 15:42:00,
2013-04-25 11:47:00,63.0,46.9,30.28,South,180,0.0,0.0,56,0.00,,,0.00,WUHU21623XXSP,2013-04-25 15:47:00,
2013-04-25 11:52:00,63.7,47.6,30.29,NW,315,0.0,0.0,56,0.00,,,0.00,WUHU21623XXSP,2013-04-25 15:52:00,
2013-04-25 11:57:00,64.6,48.4,30.28,South,180,0.0,0.0,56,0.00,,,0.00,WUHU21623XXSP,2013-04-25 15:57:00,
2013-04-25 12:02:00,64.9,48.3,30.29,South,180,0.0,0.0,55,0.00,,,0.00,WUHU21623XXSP,2013-04-25 16:02:00,
2013-04-25 12:07:00,65.5,48.3,30.28,South,180,0.0,0.0,54,0.00,,,0.00,WUHU21623XXSP,2013-04-25 16:07:00,
2013-04-25 12:12:00,66.2,48.4,30.29,West,270,0.0,1.3,53,0.00,,,0.00,WUHU21623XXSP,2013-04-25 16:12:00,
2013-04-25 12:17:00,66.7,48.6,30.28,South,180,0.0,1.3,52,0.00,,,0.00,WUHU21623XXSP,2013-04-25 16:17:00,
2013-04-25 12:22:00,66.9,48.7,30.28,South,180,0.0,0.9,52,0.00,,,0.00,WUHU21623XXSP,2013-04-25 16:22:00,
2013-04-25 12:27:00,67.6,48.4,30.28,South,180,0.0,0.9,50,0.00,,,0.00,WUHU21623XXSP,2013-04-25 16:27:00,
2013-04-25 12:32:00,67.6,48.9,30.28,South,180,0.0,0.0,51,0.00,,,0.00,WUHU21623XXSP,2013-04-25 16:32:00,
2013-04-25 12:37:00,68.2,48.9,30.28,WNW,292,0.0,0.0,50,0.00,,,0.00,WUHU21623XXSP,2013-04-25 16:37:00,
2013-04-25 12:42:00,68.4,47.9,30.28,South,180,0.0,0.0,48,0.00,,,0.00,WUHU21623XXSP,2013-04-25 16:42:00,
2013-04-25 12:47:00,68.5,47.4,30.28,West,270,0.0,0.0,47,0.00,,,0.00,WUHU21623XXSP,2013-04-25 16:47:00,
2013-04-25 12:52:00,68.7,47.6,30.28,West,270,0.0,1.1,47,0.00,,,0.00,WUHU21623XXSP,2013-04-25 16:52:00,
2013-04-25 12:57:00,69.1,47.9,30.28,West,270,0.0,1.1,47,0.00,,,0.00,WUHU21623XXSP,2013-04-25 16:57:00,
2013-04-25 13:02:00,69.4,47.1,30.28,West,270,0.0,0.0,45,0.00,,,0.00,WUHU21623XXSP,2013-04-25 17:02:00,
2013-04-25 13:07:00,69.4,47.1,30.28,WNW,292,0.0,0.0,45,0.00,,,0.00,WUHU21623XXSP,2013-04-25 17:07:00,
2013-04-25 13:12:00,69.8,46.6,30.28,SSW,202,0.0,0.0,45,0.00,,,0.00,WUHU21623XXSP,2013-04-25 17:12:00,
2013-04-25 13:17:00,70.3,47.3,30.28,WNW,292,0.0,0.0,44,0.00,,,0.00,WUHU21623XXSP,2013-04-25 17:17:00,
2013-04-25 13:22:00,70.3,46.7,30.28,West,270,0.0,0.0,44,0.00,,,0.00,WUHU21623XXSP,2013-04-25 17:22:00,
2013-04-25 13:27:00,70.9,48.4,30.28,ESE,112,0.0,0.0,45,0.00,,,0.00,WUHU21623XXSP,2013-04-25 17:27:00,
2013-04-25 13:32:00,71.2,48.1,30.28,ESE,112,0.0,0.0,44,0.00,,,0.00,WUHU21623XXSP,2013-04-25 17:32:00,
2013-04-25 13:37:00,71.8,48.6,30.27,SSW,202,0.0,0.0,44,0.00,,,0.00,WUHU21623XXSP,2013-04-25 17:37:00,
2013-04-25 13:42:00,72.3,47.3,30.27,ENE,67,0.0,0.0,41,0.00,,,0.00,WUHU21623XXSP,2013-04-25 17:42:00,
2013-04-25 13:47:00,72.5,48.0,30.27,South,180,0.0,0.0,42,0.00,,,0.00,WUHU21623XXSP,2013-04-25 17:47:00,
2013-04-25 13:52:00,73.0,47.3,30.27,SW,225,0.0,1.6,40,0.00,,,0.00,WUHU21623XXSP,2013-04-25 17:52:00,
2013-04-25 13:57:00,72.9,46.4,30.27,West,270,0.0,1.6,39,0.00,,,0.00,WUHU21623XXSP,2013-04-25 17:57:00,
2013-04-25 14:02:00,73.0,47.9,30.26,SSE,157,3.6,3.6,41,0.00,,,0.00,WUHU21623XXSP,2013-04-25 18:02:00,
2013-04-25 14:07:00,73.2,46.0,30.27,WNW,292,0.0,3.6,38,0.00,,,0.00,WUHU21623XXSP,2013-04-25 18:07:00,
2013-04-25 14:12:00,73.2,46.0,30.26,WSW,247,0.0,0.2,39,0.00,,,0.00,WUHU21623XXSP,2013-04-25 18:12:00,
2013-04-25 14:17:00,73.6,45.6,30.26,WSW,247,0.0,0.0,37,0.00,,,0.00,WUHU21623XXSP,2013-04-25 18:17:00,
2013-04-25 14:22:00,73.9,46.6,30.26,WNW,292,0.0,0.0,38,0.00,,,0.00,WUHU21623XXSP,2013-04-25 18:22:00,
2013-04-25 14:28:00,74.5,46.4,30.26,SSE,157,4.9,4.9,37,0.00,,,0.00,WUHU21623XXSP,2013-04-25 18:28:00,
2013-04-25 14:33:00,74.5,45.6,30.26,SSW,202,0.0,4.9,36,0.00,,,0.00,WUHU21623XXSP,2013-04-25 18:33:00,
2013-04-25 14:38:00,74.5,42.6,30.26,West,270,0.0,0.0,32,0.00,,,0.00,WUHU21623XXSP,2013-04-25 18:38:00,
2013-04-25 14:43:00,74.5,43.3,30.26,South,180,0.0,4.0,33,0.00,,,0.00,WUHU21623XXSP,2013-04-25 18:43:00,
2013-04-25 14:48:00,74.8,44.3,30.26,WSW,247,0.0,4.0,33,0.00,,,0.00,WUHU21623XXSP,2013-04-25 18:48:00,
2013-04-25 14:53:00,74.5,42.6,30.26,WSW,247,0.0,2.0,32,0.00,,,0.00,WUHU21623XXSP,2013-04-25 18:53:00,
2013-04-25 14:58:00,74.5,42.6,30.26,WSW,247,3.8,4.9,32,0.00,,,0.00,WUHU21623XXSP,2013-04-25 18:58:00,
2013-04-25 15:03:00,74.5,41.8,30.25,WNW,292,2.0,4.9,31,0.00,,,0.00,WUHU21623XXSP,2013-04-25 19:03:00,
2013-04-25 15:08:00,74.5,42.6,30.26,NW,315,5.1,5.1,32,0.00,,,0.00,WUHU21623XXSP,2013-04-25 19:08:00,
2013-04-25 15:13:00,74.8,42.2,30.25,NW,315,0.9,5.1,31,0.00,,,0.00,WUHU21623XXSP,2013-04-25 19:13:00,
2013-04-25 15:18:00,74.1,39.7,30.25,NNW,337,6.7,6.7,29,0.00,,,0.00,WUHU21623XXSP,2013-04-25 19:18:00,
2013-04-25 15:23:00,73.9,40.6,30.25,NNW,337,6.7,6.7,31,0.00,,,0.00,WUHU21623XXSP,2013-04-25 19:23:00,
2013-04-25 15:28:00,73.9,40.6,30.25,NNW,337,0.0,6.7,30,0.00,,,0.00,WUHU21623XXSP,2013-04-25 19:28:00,
2013-04-25 15:33:00,74.3,40.7,30.25,West,270,0.0,2.9,29,0.00,,,0.00,WUHU21623XXSP,2013-04-25 19:33:00,
2013-04-25 15:38:00,74.5,40.0,30.25,West,270,0.0,2.5,30,0.00,,,0.00,WUHU21623XXSP,2013-04-25 19:38:00,
2013-04-25 15:43:00,75.0,40.5,30.25,West,270,0.0,0.0,29,0.00,,,0.00,WUHU21623XXSP,2013-04-25 19:43:00,
2013-04-25 15:48:00,75.0,40.5,30.25,WNW,292,0.0,0.0,29,0.00,,,0.00,WUHU21623XXSP,2013-04-25 19:48:00,
2013-04-25 15:53:00,75.0,39.5,30.25,West,270,0.0,3.4,28,0.00,,,0.00,WUHU21623XXSP,2013-04-25 19:53:00,
2013-04-25 15:58:00,74.8,39.3,30.25,West,270,0.0,3.4,28,0.00,,,0.00,WUHU21623XXSP,2013-04-25 19:58:00,
2013-04-25 16:03:00,74.1,38.7,30.24,South,180,0.0,0.0,28,0.00,,,0.00,WUHU21623XXSP,2013-04-25 20:03:00,
2013-04-25 16:08:00,74.1,38.7,30.24,WSW,247,0.0,4.7,28,0.00,,,0.00,WUHU21623XXSP,2013-04-25 20:08:00,
2013-04-25 16:13:00,74.5,39.0,30.24,West,270,0.0,4.7,28,0.00,,,0.00,WUHU21623XXSP,2013-04-25 20:13:00,
2013-04-25 16:18:00,74.5,39.0,30.24,NW,315,0.0,4.7,28,0.00,,,0.00,WUHU21623XXSP,2013-04-25 20:18:00,
2013-04-25 16:23:00,74.5,39.0,30.24,WSW,247,0.0,4.7,28,0.00,,,0.00,WUHU21623XXSP,2013-04-25 20:23:00,
2013-04-25 16:28:00,74.5,39.0,30.23,SW,225,0.0,0.0,28,0.00,,,0.00,WUHU21623XXSP,2013-04-25 20:28:00,
2013-04-25 16:33:00,74.5,40.0,30.24,WNW,292,2.2,2.2,29,0.00,,,0.00,WUHU21623XXSP,2013-04-25 20:33:00,
2013-04-25 16:38:00,74.3,37.9,30.24,West,270,0.0,2.2,27,0.00,,,0.00,WUHU21623XXSP,2013-04-25 20:38:00,
2013-04-25 16:43:00,73.9,37.5,30.24,West,270,4.0,4.0,27,0.00,,,0.00,WUHU21623XXSP,2013-04-25 20:43:00,
2013-04-25 16:48:00,73.6,38.2,30.24,SSE,157,6.5,6.5,28,0.00,,,0.00,WUHU21623XXSP,2013-04-25 20:48:00,
2013-04-25 16:53:00,73.4,36.1,30.24,West,270,0.0,6.5,26,0.00,,,0.00,WUHU21623XXSP,2013-04-25 20:53:00,
2013-04-25 16:58:00,73.0,36.8,30.24,West,270,0.0,6.3,27,0.00,,,0.00,WUHU21623XXSP,2013-04-25 20:58:00,
2013-04-25 17:03:00,72.9,36.6,30.24,NW,315,3.4,6.3,27,0.00,,,0.00,WUHU21623XXSP,2013-04-25 21:03:00,
2013-04-25 17:08:00,72.7,36.5,30.24,NNW,337,6.0,6.0,27,0.00,,,0.00,WUHU21623XXSP,2013-04-25 21:08:00,
2013-04-25 17:13:00,72.3,36.2,30.24,West,270,2.9,6.0,27,0.00,,,0.00,WUHU21623XXSP,2013-04-25 21:13:00,
2013-04-25 17:18:00,72.3,36.2,30.25,SSE,157,2.5,2.9,27,0.00,,,0.00,WUHU21623XXSP,2013-04-25 21:18:00,
2013-04-25 17:23:00,71.8,34.7,30.25,West,270,2.2,2.5,26,0.00,,,0.00,WUHU21623XXSP,2013-04-25 21:23:00,
2013-04-25 17:28:00,71.2,36.3,30.25,NW,315,0.9,3.1,28,0.00,,,0.00,WUHU21623XXSP,2013-04-25 21:28:00,
2013-04-25 17:33:00,70.9,33.9,30.25,WSW,247,0.0,3.1,26,0.00,,,0.00,WUHU21623XXSP,2013-04-25 21:33:00,
2013-04-25 17:38:00,70.5,34.6,30.25,WNW,292,0.0,0.0,27,0.00,,,0.00,WUHU21623XXSP,2013-04-25 21:38:00,
2013-04-25 17:43:00,70.3,33.5,30.26,SSW,202,0.0,2.9,26,0.00,,,0.00,WUHU21623XXSP,2013-04-25 21:43:00,
2013-04-25 17:48:00,70.2,33.3,30.26,NNW,337,1.6,2.9,26,0.00,,,0.00,WUHU21623XXSP,2013-04-25 21:48:00,
2013-04-25 17:53:00,69.6,32.8,30.26,NNW,337,0.0,1.6,26,0.00,,,0.00,WUHU21623XXSP,2013-04-25 21:53:00,
2013-04-25 17:58:00,69.4,33.7,30.26,West,270,0.0,0.0,27,0.00,,,0.00,WUHU21623XXSP,2013-04-25 21:58:00,
2013-04-25 18:03:00,69.1,33.4,30.26,WNW,292,0.0,0.0,27,0.00,,,0.00,WUHU21623XXSP,2013-04-25 22:03:00,
2013-04-25 18:08:00,68.9,33.2,30.26,West,270,2.0,2.9,27,0.00,,,0.00,WUHU21623XXSP,2013-04-25 22:08:00,
2013-04-25 18:13:00,68.5,32.9,30.27,North,0,0.0,6.5,27,0.00,,,0.00,WUHU21623XXSP,2013-04-25 22:13:00,
2013-04-25 18:19:00,68.4,32.8,30.27,WNW,292,0.0,6.5,27,0.00,,,0.00,WUHU21623XXSP,2013-04-25 22:19:00,
2013-04-25 18:24:00,67.8,32.3,30.27,West,270,0.0,0.0,27,0.00,,,0.00,WUHU21623XXSP,2013-04-25 22:24:00,
2013-04-25 18:29:00,67.6,32.1,30.27,WNW,292,0.0,2.5,27,0.00,,,0.00,WUHU21623XXSP,2013-04-25 22:29:00,
2013-04-25 18:34:00,67.1,31.7,30.27,NW,315,0.0,4.9,27,0.00,,,0.00,WUHU21623XXSP,2013-04-25 22:34:00,
2013-04-25 18:39:00,66.7,31.6,30.27,WNW,292,0.0,4.9,28,0.00,,,0.00,WUHU21623XXSP,2013-04-25 22:39:00,
2013-04-25 18:44:00,66.0,31.8,30.27,NW,315,2.7,2.7,28,0.00,,,0.00,WUHU21623XXSP,2013-04-25 22:44:00,
2013-04-25 18:49:00,65.5,31.3,30.27,West,270,1.6,2.7,28,0.00,,,0.00,WUHU21623XXSP,2013-04-25 22:49:00,
2013-04-25 18:54:00,64.9,31.8,30.27,WNW,292,0.0,2.7,29,0.00,,,0.00,WUHU21623XXSP,2013-04-25 22:54:00,
2013-04-25 18:59:00,64.6,33.2,30.27,West,270,0.0,2.2,31,0.00,,,0.00,WUHU21623XXSP,2013-04-25 22:59:00,
2013-04-25 19:04:00,64.2,32.9,30.27,WNW,292,4.5,4.5,31,0.00,,,0.00,WUHU21623XXSP,2013-04-25 23:04:00,
2013-04-25 19:09:00,63.7,33.2,30.27,West,270,0.0,4.5,32,0.00,,,0.00,WUHU21623XXSP,2013-04-25 23:09:00,
2013-04-25 19:14:00,63.3,32.8,30.27,West,270,0.0,4.5,32,0.00,,,0.00,WUHU21623XXSP,2013-04-25 23:14:00,
2013-04-25 19:19:00,63.0,33.2,30.27,SW,225,5.1,5.1,33,0.00,,,0.00,WUHU21623XXSP,2013-04-25 23:19:00,
2013-04-25 19:24:00,62.2,32.6,30.27,WSW,247,0.0,5.1,33,0.00,,,0.00,WUHU21623XXSP,2013-04-25 23:24:00,
2013-04-25 19:29:00,61.9,33.0,30.27,West,270,0.0,1.3,34,0.00,,,0.00,WUHU21623XXSP,2013-04-25 23:29:00,
2013-04-25 19:34:00,61.3,32.5,30.28,WNW,292,3.1,3.1,34,0.00,,,0.00,WUHU21623XXSP,2013-04-25 23:34:00,
2013-04-25 19:39:00,60.6,32.6,30.27,NW,315,4.0,4.0,35,0.00,,,0.00,WUHU21623XXSP,2013-04-25 23:39:00,
2013-04-25 19:44:00,60.4,32.4,30.27,NW,315,0.0,4.0,35,0.00,,,0.00,WUHU21623XXSP,2013-04-25 23:44:00,
2013-04-25 19:49:00,60.1,32.8,30.27,West,270,0.0,2.0,36,0.00,,,0.00,WUHU21623XXSP,2013-04-25 23:49:00,
2013-04-25 19:54:00,59.4,32.3,30.27,West,270,0.7,0.7,36,0.00,,,0.00,WUHU21623XXSP,2013-04-25 23:54:00,
2013-04-25 19:59:00,58.8,31.7,30.27,West,270,0.0,0.7,36,0.00,,,0.00,WUHU21623XXSP,2013-04-25 23:59:00,
2013-04-25 20:04:00,58.8,32.4,30.27,West,270,1.8,1.8,37,0.00,,,0.00,WUHU21623XXSP,2013-04-26 00:04:00,
2013-04-25 20:09:00,58.3,31.9,30.27,West,270,0.0,1.8,37,0.00,,,0.00,WUHU21623XXSP,2013-04-26 00:09:00,
2013-04-25 20:14:00,57.9,31.6,30.27,West,270,0.0,0.0,37,0.00,,,0.00,WUHU21623XXSP,2013-04-26 00:14:00,
2013-04-25 20:19:00,57.6,32.0,30.27,West,270,0.0,0.0,38,0.00,,,0.00,WUHU21623XXSP,2013-04-26 00:19:00,
2013-04-25 20:24:00,57.0,31.8,30.28,WSW,247,0.0,0.0,38,0.00,,,0.00,WUHU21623XXSP,2013-04-26 00:24:00,
2013-04-25 20:29:00,56.8,31.4,30.28,WSW,247,0.0,0.0,38,0.00,,,0.00,WUHU21623XXSP,2013-04-26 00:29:00,
2013-04-25 20:34:00,56.5,31.7,30.27,WSW,247,0.0,0.0,39,0.00,,,0.00,WUHU21623XXSP,2013-04-26 00:34:00,
2013-04-25 20:39:00,56.1,31.4,30.28,WSW,247,0.0,0.0,39,0.00,,,0.00,WUHU21623XXSP,2013-04-26 00:39:00,
2013-04-25 20:44:00,55.9,31.9,30.28,WSW,247,0.0,0.0,40,0.00,,,0.00,WUHU21623XXSP,2013-04-26 00:44:00,
2013-04-25 20:49:00,55.6,31.6,30.28,WSW,247,0.0,0.0,40,0.00,,,0.00,WUHU21623XXSP,2013-04-26 00:49:00,
2013-04-25 20:54:00,55.2,31.9,30.28,WSW,247,0.0,0.0,41,0.00,,,0.00,WUHU21623XXSP,2013-04-26 00:54:00,
2013-04-25 20:59:00,55.0,31.7,30.28,WSW,247,0.0,0.0,41,0.00,,,0.00,WUHU21623XXSP,2013-04-26 00:59:00,
2013-04-25 21:04:00,54.9,31.0,30.29,WSW,247,0.0,0.0,40,0.00,,,0.00,WUHU21623XXSP,2013-04-26 01:04:00,
2013-04-25 21:09:00,54.7,30.8,30.29,WSW,247,0.0,0.0,40,0.00,,,0.00,WUHU21623XXSP,2013-04-26 01:09:00,
2013-04-25 21:14:00,54.5,30.6,30.29,WSW,247,0.0,0.0,40,0.00,,,0.00,WUHU21623XXSP,2013-04-26 01:14:00,
2013-04-25 21:19:00,54.1,30.9,30.29,WSW,247,0.0,0.0,41,0.00,,,0.00,WUHU21623XXSP,2013-04-26 01:19:00,
2013-04-25 21:24:00,54.0,31.3,30.29,WSW,247,0.0,0.0,42,0.00,,,0.00,WUHU21623XXSP,2013-04-26 01:24:00,
2013-04-25 21:29:00,53.4,31.4,30.29,WSW,247,0.0,0.0,43,0.00,,,0.00,WUHU21623XXSP,2013-04-26 01:29:00,
2013-04-25 21:34:00,52.9,30.9,30.30,WSW,247,0.0,0.0,43,0.00,,,0.00,WUHU21623XXSP,2013-04-26 01:34:00,
2013-04-25 21:39:00,52.5,30.5,30.29,WSW,247,0.0,0.0,43,0.00,,,0.00,WUHU21623XXSP,2013-04-26 01:39:00,
2013-04-25 21:44:00,52.3,30.9,30.30,WSW,247,0.0,0.0,44,0.00,,,0.00,WUHU21623XXSP,2013-04-26 01:44:00,
2013-04-25 21:49:00,51.8,31.0,30.30,WSW,247,0.0,0.0,45,0.00,,,0.00,WUHU21623XXSP,2013-04-26 01:49:00,
2013-04-25 21:54:00,51.6,31.4,30.30,WSW,247,0.0,0.0,46,0.00,,,0.00,WUHU21623XXSP,2013-04-26 01:54:00,
2013-04-25 21:59:00,51.1,30.9,30.30,WSW,247,0.0,0.0,46,0.00,,,0.00,WUHU21623XXSP,2013-04-26 01:59:00,
2013-04-25 22:04:00,50.7,31.2,30.31,WSW,247,0.0,0.0,47,0.00,,,0.00,WUHU21623XXSP,2013-04-26 02:04:00,
2013-04-25 22:09:00,50.5,31.0,30.31,WSW,247,0.0,0.0,47,0.00,,,0.00,WUHU21623XXSP,2013-04-26 02:09:00,
2013-04-25 22:14:00,50.4,30.8,30.31,WSW,247,0.0,0.0,47,0.00,,,0.00,WUHU21623XXSP,2013-04-26 02:14:00,
2013-04-25 22:19:00,49.8,30.9,30.32,WSW,247,0.0,0.0,48,0.00,,,0.00,WUHU21623XXSP,2013-04-26 02:19:00,
2013-04-25 22:24:00,49.6,30.7,30.31,WSW,247,0.0,0.0,48,0.00,,,0.00,WUHU21623XXSP,2013-04-26 02:24:00,
2013-04-25 22:29:00,49.3,30.3,30.32,WSW,247,0.0,0.0,48,0.00,,,0.00,WUHU21623XXSP,2013-04-26 02:29:00,
2013-04-25 22:34:00,48.7,30.5,30.32,WSW,247,0.0,0.0,49,0.00,,,0.00,WUHU21623XXSP,2013-04-26 02:34:00,
2013-04-25 22:39:00,48.7,30.9,30.32,WSW,247,0.0,0.0,50,0.00,,,0.00,WUHU21623XXSP,2013-04-26 02:39:00,
2013-04-25 22:45:00,48.4,30.6,30.32,WSW,247,0.0,0.0,50,0.00,,,0.00,WUHU21623XXSP,2013-04-26 02:45:00,
2013-04-25 22:50:00,48.0,30.7,30.32,WSW,247,0.0,0.0,51,0.00,,,0.00,WUHU21623XXSP,2013-04-26 02:50:00,
2013-04-25 22:55:00,47.7,31.0,30.33,WSW,247,0.0,0.0,52,0.00,,,0.00,WUHU21623XXSP,2013-04-26 02:55:00,
2013-04-25 23:00:00,47.3,30.5,30.33,WSW,247,0.0,0.0,52,0.00,,,0.00,WUHU21623XXSP,2013-04-26 03:00:00,
2013-04-25 23:05:00,47.1,30.8,30.33,WSW,247,0.0,0.0,53,0.00,,,0.00,WUHU21623XXSP,2013-04-26 03:05:00,
2013-04-25 23:10:00,46.9,31.1,30.33,WSW,247,0.0,0.0,54,0.00,,,0.00,WUHU21623XXSP,2013-04-26 03:10:00,
2013-04-25 23:15:00,46.4,31.0,30.33,WSW,247,0.0,0.0,55,0.00,,,0.00,WUHU21623XXSP,2013-04-26 03:15:00,
2013-04-25 23:20:00,46.2,30.8,30.33,WSW,247,0.0,0.0,55,0.00,,,0.00,WUHU21623XXSP,2013-04-26 03:20:00,
2013-04-25 23:25:00,46.0,31.1,30.32,WSW,247,0.0,0.0,56,0.00,,,0.00,WUHU21623XXSP,2013-04-26 03:25:00,
2013-04-25 23:30:00,45.7,30.8,30.33,WSW,247,0.0,0.0,56,0.00,,,0.00,WUHU21623XXSP,2013-04-26 03:30:00,
2013-04-25 23:35:00,45.5,31.1,30.33,WSW,247,0.0,0.0,57,0.00,,,0.00,WUHU21623XXSP,2013-04-26 03:35:00,
2013-04-25 23:40:00,45.3,30.9,30.33,WSW,247,0.0,0.0,57,0.00,,,0.00,WUHU21623XXSP,2013-04-26 03:40:00,
2013-04-25 23:45:00,45.0,30.6,30.33,WSW,247,0.0,0.0,57,0.00,,,0.00,WUHU21623XXSP,2013-04-26 03:45:00,
2013-04-25 23:50:00,45.0,31.1,30.33,WSW,247,0.0,0.0,58,0.00,,,0.00,WUHU21623XXSP,2013-04-26 03:50:00,
2013-04-25 23:55:00,44.6,30.7,30.33,WSW,247,0.0,0.0,58,0.00,,,0.00,WUHU21623XXSP,2013-04-26 03:55:00,